Time;durP1;ratioP1;P1;durP2;ratioP2;P2;SDS_P1;SDS_P2;PMS_P1;PMS_P2;Temp;Humidity;BMP_temperature;BMP_pressure;BME280_temperature;BME280_humidity;BME280_pressure;Samples;Min_cycle;Max_cycle;Signal;HPM_P1;HPM_P2
2021/12/07 00:01:21;;;;;;;2.07;1.30;;;;;;;5.27;100.00;93206.88;5013393;28;20300;-60
2021/12/07 00:03:47;;;;;;;4.00;1.40;;;;;;;5.28;100.00;93205.94;5013305;28;20206;-62
2021/12/07 00:06:12;;;;;;;2.10;1.23;;;;;;;5.19;100.00;93201.72;5019658;22;20250;-63
2021/12/07 00:08:40;;;;;;;1.10;1.00;;;;;;;5.10;100.00;93198.28;5012744;28;20180;-60
2021/12/07 00:11:06;;;;;;;2.17;1.70;;;;;;;5.02;100.00;93200.66;5013303;28;20563;-60
2021/12/07 00:13:36;;;;;;;1.47;1.37;;;;;;;5.11;100.00;93205.69;5012831;28;20186;-60
2021/12/07 00:16:03;;;;;;;1.90;1.50;;;;;;;5.06;100.00;93207.81;5012883;28;20613;-64
2021/12/07 00:18:29;;;;;;;1.53;1.23;;;;;;;5.06;100.00;93199.47;5012812;28;20680;-59
2021/12/07 00:20:55;;;;;;;3.10;1.40;;;;;;;4.98;100.00;93197.63;5012859;28;20343;-60
2021/12/07 00:23:20;;;;;;;1.90;1.33;;;;;;;5.09;100.00;93202.50;5012735;28;20267;-62
2021/12/07 00:25:46;;;;;;;2.17;1.20;;;;;;;5.12;100.00;93209.00;5013035;28;20187;-60
2021/12/07 00:28:12;;;;;;;1.40;1.30;;;;;;;4.93;100.00;93204.75;5012683;28;20238;-60
2021/12/07 00:30:38;;;;;;;1.90;1.43;;;;;;;4.92;100.00;93202.38;5012725;28;20184;-64
2021/12/07 00:33:30;;;;;;;1.10;1.00;;;;;;;4.90;100.00;93211.78;5036466;22;20348;-65
2021/12/07 00:35:55;;;;;;;3.57;1.00;;;;;;;4.77;100.00;93214.56;5031969;28;20241;-62
2021/12/07 00:38:23;;;;;;;0.83;0.83;;;;;;;4.86;100.00;93218.00;5032100;28;20179;-62
2021/12/07 00:40:50;;;;;;;1.53;1.43;;;;;;;4.78;100.00;93216.16;5031856;28;20214;-61
2021/12/07 00:43:16;;;;;;;1.30;1.20;;;;;;;4.80;100.00;93214.31;5032112;28;20201;-63
2021/12/07 00:45:45;;;;;;;1.00;0.97;;;;;;;4.68;100.00;93214.53;5032052;28;20175;-59
2021/12/07 00:48:13;;;;;;;0.97;0.87;;;;;;;4.58;100.00;93208.72;5030381;28;20213;-59
2021/12/07 00:50:41;;;;;;;1.50;1.20;;;;;;;4.60;100.00;93209.38;5032135;28;20581;-59
2021/12/07 00:53:07;;;;;;;2.60;1.00;;;;;;;4.55;100.00;93208.94;5032350;28;20301;-60
2021/12/07 00:55:38;;;;;;;0.90;0.90;;;;;;;4.54;100.00;93198.13;5031829;28;20220;-59
2021/12/07 00:58:13;;;;;;;1.20;1.10;;;;;;;4.55;100.00;93202.22;5031875;28;20691;-61
2021/12/07 01:00:40;;;;;;;0.90;0.90;;;;;;;4.61;100.00;93205.91;5031770;28;20607;-59
2021/12/07 01:03:06;;;;;;;1.37;1.00;;;;;;;4.67;100.00;93210.44;5032180;28;20211;-62
2021/12/07 01:05:34;;;;;;;1.53;0.87;;;;;;;4.57;100.00;93204.59;5030414;28;20196;-61
2021/12/07 01:27:02;;;;;;;1.70;0.90;;;;;;;4.58;100.00;93209.50;5031677;28;20213;-62
2021/12/07 01:29:27;;;;;;;0.77;0.70;;;;;;;4.66;100.00;93198.78;5031268;28;20617;-59
2021/12/07 01:32:10;;;;;;;0.50;0.50;;;;;;;4.69;100.00;93191.75;5031161;28;20275;-61
2021/12/07 01:34:58;;;;;;;0.60;0.60;;;;;;;4.64;100.00;93196.41;5031335;28;20165;-59
2021/12/07 01:59:33;;;;;;;0.93;0.67;;;;;;;4.87;100.00;93161.69;5031232;28;20169;-61
2021/12/07 02:02:01;;;;;;;0.43;0.43;;;;;;;4.78;100.00;93162.50;5031253;28;20293;-61
2021/12/07 02:04:28;;;;;;;0.60;0.60;;;;;;;4.83;100.00;93163.69;5030863;28;20743;-62
2021/12/07 02:06:53;;;;;;;0.90;0.60;;;;;;;4.83;100.00;93161.16;5031121;28;20381;-61
2021/12/07 02:09:19;;;;;;;1.50;0.63;;;;;;;4.78;100.00;93153.25;5030983;28;20359;-62
2021/12/07 02:11:48;;;;;;;0.60;0.50;;;;;;;4.75;100.00;93150.16;5031128;28;20214;-60
2021/12/07 02:14:18;;;;;;;0.50;0.50;;;;;;;4.87;100.00;93152.44;5029513;28;20269;-60
2021/12/07 02:16:53;;;;;;;1.03;0.30;;;;;;;4.77;100.00;93144.09;5031091;28;20238;-63
2021/12/07 02:19:18;;;;;;;0.50;0.30;;;;;;;4.69;100.00;93148.19;5030845;28;20168;-60
2021/12/07 02:21:44;;;;;;;0.57;0.43;;;;;;;4.61;100.00;93146.34;5030940;28;20667;-62
2021/12/07 02:24:10;;;;;;;0.43;0.43;;;;;;;4.64;100.00;93146.09;5030811;28;20166;-62
2021/12/07 02:26:36;;;;;;;0.50;0.50;;;;;;;4.49;100.00;93151.63;5030958;28;20689;-62
2021/12/07 02:29:03;;;;;;;1.03;0.80;;;;;;;4.40;100.00;93154.94;5031095;28;20206;-59
2021/12/07 02:31:29;;;;;;;0.60;0.60;;;;;;;4.33;100.00;93152.13;5033013;28;20699;-59
2021/12/07 02:33:55;;;;;;;1.70;1.07;;;;;;;4.26;100.00;93148.56;5034487;28;20222;-60
2021/12/07 02:36:21;;;;;;;1.03;0.70;;;;;;;4.21;100.00;93146.44;5033008;28;20628;-62
2021/12/07 02:38:47;;;;;;;1.50;0.93;;;;;;;4.16;100.00;93147.75;5034315;28;20182;-62
2021/12/07 02:41:12;;;;;;;1.13;0.50;;;;;;;4.17;100.00;93147.59;5034274;28;20628;-62
2021/12/07 02:43:38;;;;;;;2.93;0.97;;;;;;;4.11;100.00;93137.25;5034329;28;20210;-62
2021/12/07 02:46:03;;;;;;;0.40;0.40;;;;;;;4.06;100.00;93134.34;5034147;28;20175;-59
2021/12/07 02:48:30;;;;;;;0.73;0.50;;;;;;;4.07;100.00;93135.94;5034036;28;20198;-62
2021/12/07 02:50:56;;;;;;;0.83;0.60;;;;;;;4.13;100.00;93131.19;5033876;28;20198;-62
2021/12/07 02:53:25;;;;;;;0.40;0.40;;;;;;;3.98;100.00;93141.75;5034543;28;20178;-63
2021/12/07 02:55:53;;;;;;;0.57;0.50;;;;;;;3.99;100.00;93139.09;5033759;28;20185;-60
2021/12/07 02:58:19;;;;;;;0.97;0.57;;;;;;;3.77;100.00;93144.31;5033844;28;20178;-60
2021/12/07 03:00:55;;;;;;;1.87;0.70;;;;;;;3.81;100.00;93154.91;5032480;28;20272;-61
2021/12/07 03:03:20;;;;;;;0.60;0.60;;;;;;;3.88;100.00;93145.94;5017296;28;20258;-58
2021/12/07 03:06:00;;;;;;;2.33;0.80;;;;;;;3.89;100.00;93150.03;5033842;28;20262;-61
2021/12/07 03:27:21;;;;;;;2.73;1.57;;;;;;;3.67;100.00;93138.47;5034137;28;20741;-63
2021/12/07 03:29:46;;;;;;;1.57;0.97;;;;;;;3.51;100.00;93144.88;5015772;28;20186;-61
2021/12/07 03:32:12;;;;;;;0.33;0.30;;;;;;;3.42;100.00;93137.16;5033505;28;20297;-63
2021/12/07 03:34:38;;;;;;;1.40;0.63;;;;;;;3.30;100.00;93133.13;5033190;28;20185;-59
2021/12/07 03:37:03;;;;;;;1.93;1.37;;;;;;;3.23;100.00;93127.00;5033525;28;20205;-62
2021/12/07 03:39:29;;;;;;;1.70;0.80;;;;;;;3.17;100.00;93129.25;5033207;28;20206;-59
2021/12/07 03:41:54;;;;;;;2.07;1.20;;;;;;;3.19;100.00;93130.69;5033326;28;20294;-63
2021/12/07 03:44:20;;;;;;;1.33;0.70;;;;;;;3.23;100.00;93133.75;5033327;28;20185;-62
2021/12/07 03:46:45;;;;;;;0.87;0.70;;;;;;;3.02;100.00;93140.50;5033246;28;20214;-61
2021/12/07 03:49:11;;;;;;;1.10;0.70;;;;;;;3.05;100.00;93135.25;5032857;28;20178;-62
2021/12/07 03:51:37;;;;;;;0.50;0.50;;;;;;;3.10;100.00;93131.44;5033269;28;20209;-60
2021/12/07 03:54:03;;;;;;;0.70;0.60;;;;;;;3.11;100.00;93135.53;5032811;28;20181;-59
2021/12/07 03:56:30;;;;;;;0.70;0.70;;;;;;;3.03;100.00;93132.84;5032945;28;20289;-57
2021/12/07 03:58:55;;;;;;;0.70;0.67;;;;;;;3.04;100.00;93139.47;5032842;28;20647;-64
2021/12/07 04:01:23;;;;;;;0.70;0.60;;;;;;;3.06;100.00;93145.16;5032894;28;20277;-59
2021/12/07 04:03:49;;;;;;;0.97;0.60;;;;;;;3.04;100.00;93149.50;5033007;28;20190;-59
2021/12/07 04:06:15;;;;;;;0.77;0.47;;;;;;;3.13;100.00;93147.97;5039921;22;20800;-62
2021/12/07 04:08:42;;;;;;;0.70;0.53;;;;;;;3.10;100.00;93143.19;5032646;28;20213;-60
2021/12/07 04:11:07;;;;;;;0.57;0.50;;;;;;;3.00;100.00;93144.84;5033018;28;20271;-61
2021/12/07 04:13:33;;;;;;;1.30;0.63;;;;;;;2.99;100.00;93141.53;5032413;28;20181;-61
2021/12/07 04:16:01;;;;;;;0.40;0.40;;;;;;;3.04;100.00;93144.47;5033372;28;20178;-60
2021/12/07 04:18:28;;;;;;;0.50;0.50;;;;;;;3.03;100.00;93145.38;5032463;28;20229;-59
2021/12/07 04:20:53;;;;;;;0.40;0.40;;;;;;;2.92;100.00;93135.41;5032956;28;20604;-63
2021/12/07 04:23:19;;;;;;;0.57;0.50;;;;;;;2.88;100.00;93134.06;5032757;28;20220;-61
2021/12/07 04:25:45;;;;;;;1.43;0.70;;;;;;;2.89;100.00;93140.66;5033096;28;20185;-64
2021/12/07 04:28:10;;;;;;;0.50;0.50;;;;;;;2.83;100.00;93131.13;5032582;28;20287;-61
2021/12/07 04:30:39;;;;;;;0.43;0.40;;;;;;;2.78;100.00;93125.69;5032760;28;20344;-59
2021/12/07 04:33:07;;;;;;;0.60;0.60;;;;;;;2.75;100.00;93130.94;5030977;28;20309;-60
2021/12/07 04:35:34;;;;;;;0.90;0.70;;;;;;;2.86;100.00;93135.09;5032728;28;20189;-65
2021/12/07 04:38:00;;;;;;;1.20;0.80;;;;;;;2.82;100.00;93128.75;5032367;28;20683;-63
2021/12/07 04:40:28;;;;;;;1.80;0.60;;;;;;;2.84;100.00;93127.72;5032658;28;20225;-61
2021/12/07 04:42:55;;;;;;;0.50;0.50;;;;;;;2.81;100.00;93129.69;5030999;28;20205;-62
2021/12/07 04:46:14;;;;;;;2.70;0.60;;;;;;;2.71;100.00;93121.28;5032248;28;20260;-58
2021/12/07 04:57:34;;;;;;;1.10;1.00;;;;;;;2.59;100.00;93132.28;5030966;28;20192;-64
2021/12/07 04:58:51;;;;;;;0.40;0.40;;;;;;;2.40;100.00;93136.19;5032350;28;20658;-65
2021/12/07 05:01:17;;;;;;;1.63;0.73;;;;;;;2.45;100.00;93133.34;5031936;28;20209;-59
2021/12/07 05:03:44;;;;;;;0.87;0.60;;;;;;;2.45;100.00;93128.31;5031905;28;20177;-61
2021/12/07 05:06:11;;;;;;;0.70;0.70;;;;;;;2.42;100.00;93138.59;5014548;28;20210;-62
2021/12/07 05:08:44;;;;;;;0.80;0.60;;;;;;;2.36;100.00;93139.09;5014592;28;20190;-62
2021/12/07 05:14:16;;;;;;;0.67;0.67;;;;;;;2.32;100.00;93130.22;5030145;28;20306;-61
2021/12/07 05:16:54;;;;;;;0.80;0.77;;;;;;;2.18;100.00;93128.75;5031210;28;20206;-63
2021/12/07 05:38:22;;;;;;;2.40;0.80;;;;;;;1.72;100.00;93130.66;5031940;28;20181;-60
2021/12/07 05:40:48;;;;;;;1.03;0.70;;;;;;;1.73;100.00;93129.75;5029719;28;20222;-59
2021/12/07 05:43:14;;;;;;;0.70;0.70;;;;;;;1.66;100.00;93136.94;5031232;28;20228;-63
2021/12/07 05:45:39;;;;;;;1.30;0.90;;;;;;;1.65;100.00;93122.03;5030118;28;20212;-61
2021/12/07 05:48:07;;;;;;;1.27;1.00;;;;;;;1.53;100.00;93126.25;5031380;28;20680;-63
2021/12/07 05:50:35;;;;;;;0.70;0.70;;;;;;;1.53;100.00;93127.94;5031640;28;20194;-64
2021/12/07 05:53:02;;;;;;;1.57;1.07;;;;;;;1.53;100.00;93132.97;5029839;28;20705;-59
2021/12/07 05:55:28;;;;;;;2.87;1.00;;;;;;;1.47;100.00;93126.72;5031547;28;20186;-62
2021/12/07 05:57:55;;;;;;;2.20;1.10;;;;;;;1.42;100.00;93133.75;5029601;28;20205;-58
2021/12/07 06:00:29;;;;;;;2.63;1.20;;;;;;;1.39;100.00;93131.50;5031427;28;20255;-60
2021/12/07 06:03:04;;;;;;;1.93;1.10;;;;;;;1.44;100.00;93136.94;5031414;28;20659;-64
2021/12/07 06:05:31;;;;;;;2.23;1.00;;;;;;;1.50;100.00;93136.47;5034281;28;20193;-59
2021/12/07 06:07:57;;;;;;;2.83;1.10;;;;;;;1.54;100.00;93137.84;5034665;28;20660;-59
2021/12/07 06:10:25;;;;;;;2.17;1.30;;;;;;;1.49;100.00;93129.91;5034763;28;20696;-60
2021/12/07 06:12:50;;;;;;;1.90;1.27;;;;;;;1.39;100.00;93128.97;5033163;28;20217;-61
2021/12/07 06:15:19;;;;;;;4.27;1.30;;;;;;;1.48;100.00;93130.78;5033372;28;20191;-59
2021/12/07 06:17:45;;;;;;;1.73;1.07;;;;;;;1.47;100.00;93126.72;5034485;28;20252;-60
2021/12/07 06:20:11;;;;;;;2.20;0.90;;;;;;;1.40;100.00;93133.06;5034822;28;20216;-63
2021/12/07 06:22:37;;;;;;;2.57;1.13;;;;;;;1.35;100.00;93136.81;5034641;28;20201;-60
2021/12/07 06:25:03;;;;;;;2.07;1.00;;;;;;;1.35;100.00;93132.63;5034785;28;20190;-60
2021/12/07 06:27:29;;;;;;;1.63;1.00;;;;;;;1.30;100.00;93127.16;5034526;28;20201;-60
2021/12/07 06:29:54;;;;;;;0.93;0.80;;;;;;;1.33;100.00;93134.44;5034601;28;20528;-62
2021/12/07 06:32:20;;;;;;;2.07;1.07;;;;;;;1.30;100.00;93132.16;5034376;28;20199;-59
2021/12/07 06:34:45;;;;;;;1.73;1.00;;;;;;;1.29;100.00;93133.06;5034631;28;20194;-64
2021/12/07 06:37:11;;;;;;;1.57;1.33;;;;;;;1.28;100.00;93131.47;5034329;28;20565;-62
2021/12/07 06:39:36;;;;;;;3.10;1.50;;;;;;;1.26;100.00;93132.47;5034323;28;20558;-59
2021/12/07 06:42:03;;;;;;;5.50;1.67;;;;;;;1.37;100.00;93130.81;5034214;28;20206;-64
2021/12/07 06:44:28;;;;;;;3.97;1.73;;;;;;;1.29;100.00;93134.78;5034183;28;20186;-62
2021/12/07 06:46:54;;;;;;;5.23;2.00;;;;;;;1.28;100.00;93126.47;5034085;28;20260;-62
2021/12/07 06:49:20;;;;;;;3.00;1.53;;;;;;;1.24;100.00;93135.09;5034130;28;20208;-64
2021/12/07 06:51:47;;;;;;;5.10;1.23;;;;;;;1.14;100.00;93130.88;5034532;28;20284;-62
2021/12/07 06:54:13;;;;;;;2.80;1.50;;;;;;;1.14;100.00;93134.19;5034108;28;20212;-64
2021/12/07 06:56:39;;;;;;;2.57;1.60;;;;;;;1.21;100.00;93129.53;5033927;28;20202;-63
2021/12/07 06:59:05;;;;;;;1.40;1.20;;;;;;;1.21;100.00;93130.31;5034123;28;20185;-62
2021/12/07 07:01:32;;;;;;;2.73;1.20;;;;;;;1.20;100.00;93125.44;5034049;28;20213;-63
2021/12/07 07:03:58;;;;;;;3.57;1.20;;;;;;;1.13;100.00;93130.06;5033001;28;20189;-59
2021/12/07 07:06:23;;;;;;;2.90;1.20;;;;;;;1.10;100.00;93127.81;5034383;28;20206;-63
2021/12/07 07:08:51;;;;;;;1.40;0.93;;;;;;;1.10;100.00;93134.50;5033675;28;20571;-60
2021/12/07 07:11:18;;;;;;;2.20;1.10;;;;;;;1.00;100.00;93131.09;5032396;28;20203;-58
2021/12/07 07:13:45;;;;;;;1.40;1.17;;;;;;;0.99;100.00;93137.78;5033769;28;20603;-61
2021/12/07 07:16:11;;;;;;;1.43;0.90;;;;;;;1.14;100.00;93124.19;5032046;28;20224;-63
2021/12/07 07:18:37;;;;;;;1.30;1.10;;;;;;;1.11;100.00;93136.91;5033689;28;20254;-60
2021/12/07 07:21:03;;;;;;;2.63;1.30;;;;;;;1.01;100.00;93128.47;5034109;28;20311;-62
2021/12/07 07:23:29;;;;;;;3.80;1.40;;;;;;;0.88;100.00;93130.28;5033861;28;20197;-64
2021/12/07 07:25:55;;;;;;;2.90;1.57;;;;;;;0.89;100.00;93134.34;5034268;28;20197;-62
2021/12/07 07:28:29;;;;;;;2.63;1.50;;;;;;;0.86;100.00;93137.09;5032111;28;20542;-59
2021/12/07 07:30:56;;;;;;;3.53;1.33;;;;;;;0.85;100.00;93137.97;5034092;28;20335;-62
2021/12/07 07:33:21;;;;;;;3.60;1.43;;;;;;;0.85;100.00;93132.97;5032051;28;20564;-62
2021/12/07 07:35:47;;;;;;;1.80;1.30;;;;;;;0.81;100.00;93134.09;5032294;28;20195;-60
2021/12/07 07:38:14;;;;;;;1.60;1.17;;;;;;;0.90;100.00;93133.47;5033428;28;20228;-61
2021/12/07 07:40:40;;;;;;;2.13;1.40;;;;;;;0.76;100.00;93131.97;5033661;28;20210;-59
2021/12/07 07:43:05;;;;;;;1.90;1.10;;;;;;;0.72;100.00;93138.09;5033634;28;20198;-60
2021/12/07 07:45:31;;;;;;;1.97;1.47;;;;;;;0.76;100.00;93131.97;5033558;28;20190;-60
2021/12/07 07:47:57;;;;;;;2.73;1.27;;;;;;;0.83;100.00;93124.78;5033464;28;20707;-64
2021/12/07 07:50:23;;;;;;;1.90;1.67;;;;;;;0.73;100.00;93133.88;5032338;28;20239;-63
2021/12/07 07:52:48;;;;;;;2.90;1.33;;;;;;;0.76;100.00;93126.16;5033702;28;20198;-62
2021/12/07 07:55:15;;;;;;;2.73;1.73;;;;;;;0.76;100.00;93129.47;5033657;28;20186;-59
2021/12/07 07:57:41;;;;;;;4.40;1.77;;;;;;;0.74;100.00;93125.47;5033427;28;20205;-63
2021/12/07 08:00:10;;;;;;;1.23;1.13;;;;;;;0.67;100.00;93114.31;5033377;28;20235;-60
2021/12/07 08:02:36;;;;;;;2.57;1.50;;;;;;;0.72;100.00;93122.28;5032685;28;20202;-63
2021/12/07 08:05:03;;;;;;;4.43;1.07;;;;;;;0.70;100.00;93119.09;5031419;28;20292;-59
2021/12/07 08:07:29;;;;;;;1.47;1.33;;;;;;;0.66;100.00;93112.72;5031382;28;20288;-65
2021/12/07 08:09:54;;;;;;;2.00;1.30;;;;;;;0.69;100.00;93120.78;5032823;28;20272;-60
2021/12/07 08:12:20;;;;;;;3.43;1.50;;;;;;;0.73;100.00;93137.16;5032665;28;20217;-64
2021/12/07 08:14:45;;;;;;;1.40;1.13;;;;;;;0.71;100.00;93130.66;5031276;28;20542;-59
2021/12/07 08:17:11;;;;;;;1.93;1.00;;;;;;;0.81;100.00;93132.41;5032324;28;20217;-63
2021/12/07 08:19:37;;;;;;;1.47;1.37;;;;;;;0.89;100.00;93138.59;5032749;28;20324;-65
2021/12/07 08:22:03;;;;;;;1.67;1.40;;;;;;;0.89;100.00;93138.59;5031667;28;20284;-61
2021/12/07 08:24:29;;;;;;;1.77;0.87;;;;;;;0.73;100.00;93127.16;5032490;28;20205;-59
2021/12/07 08:26:54;;;;;;;1.77;1.37;;;;;;;0.74;100.00;93136.28;5038632;22;20213;-62
2021/12/07 08:29:20;;;;;;;2.20;1.43;;;;;;;0.74;100.00;93141.28;5032247;28;20239;-60
2021/12/07 08:31:51;;;;;;;2.00;1.60;;;;;;;0.79;100.00;93134.22;5032364;28;20297;-59
2021/12/07 08:34:17;;;;;;;2.37;1.30;;;;;;;0.85;100.00;93150.47;5032253;28;20248;-60
2021/12/07 08:36:49;;;;;;;1.50;1.40;;;;;;;0.85;100.00;93143.78;5031886;28;20232;-63
2021/12/07 08:39:15;;;;;;;5.27;1.87;;;;;;;0.77;100.00;93151.03;5032200;28;20209;-61
2021/12/07 08:41:41;;;;;;;1.43;1.20;;;;;;;0.80;100.00;93150.03;5032072;28;20220;-63
2021/12/07 08:44:06;;;;;;;2.57;1.60;;;;;;;0.80;100.00;93155.03;5031852;28;20193;-59
2021/12/07 08:46:32;;;;;;;2.17;1.50;;;;;;;0.78;100.00;93165.16;5031992;28;20705;-59
2021/12/07 08:48:58;;;;;;;2.27;1.43;;;;;;;0.77;100.00;93165.25;5031800;28;20542;-60
2021/12/07 08:51:23;;;;;;;2.00;1.60;;;;;;;0.71;100.00;93161.47;5014142;28;20608;-61
2021/12/07 08:53:56;;;;;;;2.17;1.33;;;;;;;0.65;100.00;93173.59;5030561;28;20204;-58
2021/12/07 09:01:52;;;;;;;1.13;1.03;;;;;;;0.66;100.00;93167.72;5032240;28;20219;-61
2021/12/07 09:04:19;;;;;;;1.90;1.27;;;;;;;0.65;100.00;93173.59;5031629;28;20181;-63
2021/12/07 09:06:46;;;;;;;2.10;1.30;;;;;;;0.67;100.00;93169.28;5031785;28;20212;-62
2021/12/07 09:09:13;;;;;;;1.63;1.17;;;;;;;0.67;100.00;93174.28;5031655;28;20180;-61
2021/12/07 09:11:39;;;;;;;2.83;1.30;;;;;;;0.64;100.00;93172.84;5030242;28;20232;-62
2021/12/07 09:14:05;;;;;;;2.10;1.00;;;;;;;0.59;100.00;93164.03;5031590;28;20270;-62
2021/12/07 09:16:31;;;;;;;2.40;1.60;;;;;;;0.63;100.00;93167.91;5031629;28;20228;-62
2021/12/07 09:18:56;;;;;;;1.90;1.40;;;;;;;0.62;100.00;93166.34;5031716;28;20185;-58
2021/12/07 09:21:22;;;;;;;1.63;1.17;;;;;;;0.65;100.00;93163.59;5031392;28;20287;-61
2021/12/07 09:23:48;;;;;;;1.47;1.37;;;;;;;0.62;100.00;93157.16;5031626;28;20207;-64
2021/12/07 09:26:15;;;;;;;1.33;1.23;;;;;;;0.71;100.00;93155.66;5031402;28;20202;-60
2021/12/07 09:28:41;;;;;;;1.60;1.13;;;;;;;0.67;100.00;93162.59;5030285;28;20197;-60
2021/12/07 09:31:08;;;;;;;1.50;1.27;;;;;;;0.77;100.00;93160.25;5031244;28;20222;-60
2021/12/07 09:33:34;;;;;;;1.10;1.00;;;;;;;0.81;100.00;93156.63;5031296;28;20174;-59
2021/12/07 09:36:00;;;;;;;1.40;1.30;;;;;;;0.82;100.00;93155.72;5030958;28;20239;-58
2021/12/07 09:38:26;;;;;;;1.43;1.33;;;;;;;0.90;100.00;93155.97;5032289;28;20177;-58
2021/12/07 09:40:53;;;;;;;1.43;1.33;;;;;;;0.76;100.00;93154.47;5033959;28;20590;-58
2021/12/07 09:43:19;;;;;;;1.87;1.50;;;;;;;0.71;100.00;93151.47;5035456;28;20185;-60
2021/12/07 09:45:45;;;;;;;3.53;1.27;;;;;;;0.75;100.00;93152.84;5033850;28;20186;-59
2021/12/07 09:48:13;;;;;;;2.10;1.60;;;;;;;0.74;100.00;93142.97;5035527;28;20214;-58
2021/12/07 09:50:43;;;;;;;1.70;1.60;;;;;;;0.77;100.00;93135.25;5035026;28;20200;-60
2021/12/07 09:53:11;;;;;;;3.30;2.83;;;;;;;0.85;100.00;93152.97;5035366;28;20201;-60
2021/12/07 09:55:39;;;;;;;1.83;1.60;;;;;;;0.90;100.00;93147.66;5034875;28;20189;-59
2021/12/07 09:58:06;;;;;;;8.10;5.03;;;;;;;0.91;100.00;93141.78;5034755;28;20239;-59
2021/12/07 10:00:34;;;;;;;2.27;2.07;;;;;;;0.88;100.00;93155.28;5034771;28;20201;-58
2021/12/07 10:03:00;;;;;;;4.97;2.23;;;;;;;0.85;100.00;93153.78;5035104;28;20284;-59
2021/12/07 10:05:30;;;;;;;1.70;1.57;;;;;;;0.85;100.00;93152.97;5034871;28;20182;-59
2021/12/07 10:07:56;;;;;;;4.30;1.93;;;;;;;0.78;100.00;93146.84;5033718;28;20210;-58
2021/12/07 10:10:26;;;;;;;1.77;1.60;;;;;;;0.88;100.00;93150.28;5034617;28;20206;-59
2021/12/07 10:12:52;;;;;;;2.07;1.67;;;;;;;0.82;100.00;93154.03;5034481;28;20205;-59
2021/12/07 10:15:19;;;;;;;2.43;1.97;;;;;;;0.81;100.00;93151.63;5034460;28;20701;-59
2021/12/07 10:18:02;;;;;;;2.90;1.70;;;;;;;0.83;100.00;93149.81;5034787;28;20201;-59
2021/12/07 10:20:42;;;;;;;2.57;1.70;;;;;;;0.99;100.00;93145.28;5034264;28;20195;-58
2021/12/07 10:23:14;;;;;;;1.87;1.70;;;;;;;0.87;100.00;93142.91;5034806;28;20224;-60
2021/12/07 10:26:02;;;;;;;2.67;1.83;;;;;;;0.80;100.00;93137.53;5034249;28;20615;-58
2021/12/07 10:28:30;;;;;;;2.60;1.80;;;;;;;0.92;100.00;93121.66;5034272;28;20190;-61
2021/12/07 10:31:19;;;;;;;2.10;1.60;;;;;;;0.91;100.00;93130.03;5034408;28;20667;-61
2021/12/07 10:33:58;;;;;;;2.50;1.90;;;;;;;0.89;100.00;93134.34;5032684;28;20178;-63
2021/12/07 10:36:24;;;;;;;3.57;1.90;;;;;;;0.94;100.00;93126.53;5034351;28;20716;-63
2021/12/07 10:39:00;;;;;;;4.33;2.23;;;;;;;0.99;100.00;93130.28;5033888;28;20268;-61
2021/12/07 10:41:26;;;;;;;2.97;2.10;;;;;;;0.96;100.00;93119.72;5033908;28;20225;-62
2021/12/07 10:43:58;;;;;;;3.70;2.20;;;;;;;0.93;100.00;93130.72;5033893;28;20714;-62
2021/12/07 10:46:44;;;;;;;3.97;2.37;;;;;;;0.91;100.00;93124.25;5033675;28;20784;-62
2021/12/07 10:49:13;;;;;;;5.00;2.67;;;;;;;0.98;100.00;93122.91;5034016;28;20170;-61
2021/12/07 10:51:40;;;;;;;3.90;2.27;;;;;;;0.88;100.00;93126.97;5033189;28;20214;-62
2021/12/07 10:54:06;;;;;;;3.40;2.30;;;;;;;0.87;100.00;93125.38;5033833;28;20732;-62
2021/12/07 10:56:34;;;;;;;4.87;2.57;;;;;;;0.87;100.00;93125.38;5032667;28;20214;-58
2021/12/07 10:59:09;;;;;;;2.87;2.27;;;;;;;0.87;100.00;93121.16;5033899;28;20198;-59
2021/12/07 11:01:39;;;;;;;2.70;2.07;;;;;;;0.81;100.00;93092.41;5034031;28;20242;-59
2021/12/07 11:04:36;;;;;;;2.97;2.77;;;;;;;0.89;100.00;93106.06;5033945;28;20188;-59
2021/12/07 11:07:11;;;;;;;2.90;2.53;;;;;;;0.75;100.00;93095.34;5000328;28;20404;-60
2021/12/07 11:10:07;;;;;;;3.30;3.00;;;;;;;0.90;100.00;93085.16;5033738;28;20178;-62
2021/12/07 11:13:07;;;;;;;5.40;2.90;;;;;;;0.91;100.00;93089.25;5033914;28;20198;-62
2021/12/07 11:15:35;;;;;;;3.13;2.83;;;;;;;0.83;100.00;93103.09;5033776;28;20249;-62
2021/12/07 11:18:06;;;;;;;3.80;2.80;;;;;;;1.06;100.00;93100.63;5032098;28;20198;-59
2021/12/07 11:20:33;;;;;;;3.33;2.57;;;;;;;0.99;100.00;93094.50;5033333;28;20590;-60
2021/12/07 11:23:13;;;;;;;2.70;2.30;;;;;;;1.00;100.00;93114.38;5033839;28;20210;-59
2021/12/07 11:31:23;;;;;;;3.80;2.63;;;;;;;0.78;100.00;93089.34;5033117;28;20298;-63
2021/12/07 11:33:51;;;;;;;5.40;3.00;;;;;;;0.87;100.00;93091.16;5031894;28;20264;-58
2021/12/07 11:36:27;;;;;;;4.07;2.97;;;;;;;0.88;100.00;93100.25;5031768;28;20303;-59
2021/12/07 11:38:55;;;;;;;5.87;3.00;;;;;;;0.95;100.00;93093.91;5033318;28;20174;-61
2021/12/07 11:41:27;;;;;;;5.67;2.80;;;;;;;0.81;100.00;93094.09;5032964;28;20222;-63
2021/12/07 11:43:56;;;;;;;5.27;2.90;;;;;;;0.87;100.00;93093.66;5033152;28;20254;-61
2021/12/07 11:46:25;;;;;;;4.07;2.20;;;;;;;0.96;100.00;93095.50;5032876;28;20221;-62
2021/12/07 11:49:13;;;;;;;2.90;2.00;;;;;;;0.84;100.00;93107.19;5031910;28;20269;-62
2021/12/07 11:51:41;;;;;;;4.00;2.17;;;;;;;0.91;100.00;93105.03;5033090;28;20241;-63
2021/12/07 11:54:07;;;;;;;2.10;1.67;;;;;;;0.84;100.00;93097.19;5032757;28;20173;-61
2021/12/07 11:56:33;;;;;;;2.57;2.00;;;;;;;0.87;100.00;93100.38;5031417;28;20579;-61
2021/12/07 11:58:58;;;;;;;3.10;2.00;;;;;;;0.86;100.00;93094.59;5032710;28;20566;-61
2021/12/07 12:01:24;;;;;;;1.70;1.60;;;;;;;0.78;100.00;93090.13;5032161;28;20230;-62
2021/12/07 12:03:49;;;;;;;2.70;2.10;;;;;;;0.83;100.00;93098.09;5032352;28;20182;-61
2021/12/07 12:06:15;;;;;;;3.27;2.10;;;;;;;0.80;100.00;93102.53;5032617;28;20229;-61
2021/12/07 12:08:41;;;;;;;1.87;1.70;;;;;;;0.81;100.00;93107.41;5032573;28;20212;-63
2021/12/07 12:11:21;;;;;;;2.20;1.60;;;;;;;0.79;100.00;93091.72;5032210;28;20205;-61
2021/12/07 12:14:10;;;;;;;1.90;1.80;;;;;;;0.86;100.00;93097.09;5032675;28;20219;-63
2021/12/07 12:17:16;;;;;;;2.10;1.90;;;;;;;0.91;100.00;93085.03;5030886;28;20308;-63
2021/12/07 12:19:53;;;;;;;1.80;1.57;;;;;;;0.79;100.00;93088.41;5032282;28;20273;-61
2021/12/07 12:22:36;;;;;;;2.10;1.90;;;;;;;0.81;100.00;93091.59;5032402;28;20240;-63
2021/12/07 12:25:11;;;;;;;2.33;1.73;;;;;;;0.90;100.00;93088.44;5032218;28;20264;-63
2021/12/07 12:27:38;;;;;;;2.73;1.73;;;;;;;0.89;100.00;93086.06;5039327;22;20721;-61
2021/12/07 12:30:18;;;;;;;1.90;1.70;;;;;;;1.08;100.00;93082.09;5031843;28;20173;-60
2021/12/07 12:32:49;;;;;;;2.00;1.70;;;;;;;0.81;100.00;93066.59;5032467;28;20296;-63
2021/12/07 12:35:14;;;;;;;1.87;1.40;;;;;;;0.85;100.00;93080.47;5031886;28;20639;-63
2021/12/07 12:37:48;;;;;;;1.77;1.17;;;;;;;0.82;100.00;93078.22;5032499;28;20267;-59
2021/12/07 12:40:27;;;;;;;3.07;2.10;;;;;;;0.85;100.00;93090.47;5031963;28;20256;-60
2021/12/07 12:42:54;;;;;;;1.47;1.37;;;;;;;0.66;100.00;93088.53;5032267;28;20230;-58
2021/12/07 12:45:21;;;;;;;1.80;1.50;;;;;;;0.72;100.00;93092.28;5031887;28;20583;-64
2021/12/07 12:47:58;;;;;;;3.60;2.03;;;;;;;0.71;100.00;93095.66;5032178;28;20232;-59
2021/12/07 12:50:31;;;;;;;1.73;1.63;;;;;;;0.69;100.00;93098.28;5031728;28;20794;-60
2021/12/07 12:53:09;;;;;;;2.20;2.00;;;;;;;0.79;100.00;93103.41;5032008;28;20229;-64
2021/12/07 12:55:44;;;;;;;2.17;1.97;;;;;;;0.73;100.00;93094.66;5031770;28;20253;-60
2021/12/07 12:58:37;;;;;;;2.47;2.10;;;;;;;0.81;100.00;93101.59;5032046;28;20200;-61
2021/12/07 13:01:26;;;;;;;2.10;1.60;;;;;;;0.84;100.00;93102.19;5031656;28;20643;-62
2021/12/07 13:04:12;;;;;;;2.67;2.00;;;;;;;0.72;100.00;93113.09;5030300;28;20186;-59
2021/12/07 13:06:51;;;;;;;2.53;1.47;;;;;;;0.81;100.00;93106.59;5031856;28;20297;-64
2021/12/07 13:09:19;;;;;;;1.90;1.40;;;;;;;0.79;100.00;93105.91;5030449;28;20201;-59
2021/12/07 13:12:06;;;;;;;2.60;1.50;;;;;;;0.81;100.00;93096.59;5031674;28;20235;-61
2021/12/07 13:14:31;;;;;;;2.40;1.73;;;;;;;0.74;100.00;93102.97;5029853;28;20185;-62
2021/12/07 13:17:00;;;;;;;1.90;1.80;;;;;;;0.67;100.00;93109.31;5031928;28;20232;-61
2021/12/07 13:19:27;;;;;;;2.43;1.70;;;;;;;0.81;100.00;93104.91;5031699;28;20177;-60
2021/12/07 13:21:53;;;;;;;2.77;2.03;;;;;;;0.71;100.00;93111.47;5030232;28;20210;-61
2021/12/07 13:24:34;;;;;;;3.23;2.43;;;;;;;0.72;100.00;93124.78;5030062;28;20189;-64